sensor_id;sensor_type;location;lat;lon;timestamp;pressure;altitude;pressure_sealevel;temperature;humidity
27705;BME280;15109;50.992;6.918;2022-07-06T00:00:05;101856.41;;;17.18;100.00
27705;BME280;15109;50.992;6.918;2022-07-06T00:03:26;101851.00;;;17.04;100.00
27705;BME280;15109;50.992;6.918;2022-07-06T00:06:47;101843.69;;;16.96;100.00
27705;BME280;15109;50.992;6.918;2022-07-06T00:10:08;101852.66;;;16.98;100.00
27705;BME280;15109;50.992;6.918;2022-07-06T00:13:30;101849.69;;;17.00;100.00
27705;BME280;15109;50.992;6.918;2022-07-06T00:16:51;101844.97;;;16.94;100.00
27705;BME280;15109;50.992;6.918;2022-07-06T00:20:12;101850.84;;;16.84;100.00
27705;BME280;15109;50.992;6.918;2022-07-06T00:23:33;101849.69;;;16.72;100.00
27705;BME280;15109;50.992;6.918;2022-07-06T00:26:54;101848.19;;;16.69;100.00
27705;BME280;15109;50.992;6.918;2022-07-06T00:30:15;101838.97;;;16.62;100.00
27705;BME280;15109;50.992;6.918;2022-07-06T00:33:36;101837.06;;;16.63;100.00
27705;BME280;15109;50.992;6.918;2022-07-06T00:36:57;101845.66;;;16.53;100.00
27705;BME280;15109;50.992;6.918;2022-07-06T00:40:18;101840.97;;;16.54;100.00
27705;BME280;15109;50.992;6.918;2022-07-06T00:43:49;101847.50;;;16.46;100.00
27705;BME280;15109;50.992;6.918;2022-07-06T00:47:11;101844.41;;;16.34;100.00
27705;BME280;15109;50.992;6.918;2022-07-06T00:50:33;101844.34;;;16.28;100.00
27705;BME280;15109;50.992;6.918;2022-07-06T00:53:55;101850.72;;;16.28;100.00
27705;BME280;15109;50.992;6.918;2022-07-06T00:57:18;101850.53;;;16.30;100.00
27705;BME280;15109;50.992;6.918;2022-07-06T01:00:39;101860.91;;;16.28;100.00
27705;BME280;15109;50.992;6.918;2022-07-06T01:04:05;101864.06;;;16.25;100.00
27705;BME280;15109;50.992;6.918;2022-07-06T01:07:27;101857.22;;;16.21;100.00
27705;BME280;15109;50.992;6.918;2022-07-06T01:10:49;101862.06;;;16.19;100.00
27705;BME280;15109;50.992;6.918;2022-07-06T01:14:12;101862.78;;;16.06;100.00
27705;BME280;15109;50.992;6.918;2022-07-06T01:17:33;101872.09;;;16.05;100.00
27705;BME280;15109;50.992;6.918;2022-07-06T01:21:12;101865.19;;;15.95;100.00
27705;BME280;15109;50.992;6.918;2022-07-06T01:24:37;101860.94;;;15.77;100.00
27705;BME280;15109;50.992;6.918;2022-07-06T01:27:58;101863.78;;;15.84;100.00
27705;BME280;15109;50.992;6.918;2022-07-06T01:31:21;101866.06;;;15.80;100.00
27705;BME280;15109;50.992;6.918;2022-07-06T01:34:42;101859.69;;;15.80;100.00
27705;BME280;15109;50.992;6.918;2022-07-06T01:38:04;101860.38;;;15.82;100.00
27705;BME280;15109;50.992;6.918;2022-07-06T01:41:25;101864.84;;;15.83;100.00
27705;BME280;15109;50.992;6.918;2022-07-06T01:44:46;101860.56;;;15.80;100.00
27705;BME280;15109;50.992;6.918;2022-07-06T01:48:09;101857.53;;;15.75;100.00
27705;BME280;15109;50.992;6.918;2022-07-06T01:51:30;101853.38;;;15.65;100.00
27705;BME280;15109;50.992;6.918;2022-07-06T01:54:54;101854.53;;;15.56;100.00
27705;BME280;15109;50.992;6.918;2022-07-06T01:58:15;101853.84;;;15.54;100.00
27705;BME280;15109;50.992;6.918;2022-07-06T02:01:37;101860.50;;;15.59;100.00
27705;BME280;15109;50.992;6.918;2022-07-06T02:04:58;101839.69;;;15.57;100.00
27705;BME280;15109;50.992;6.918;2022-07-06T02:08:19;101856.31;;;15.49;100.00
27705;BME280;15109;50.992;6.918;2022-07-06T02:11:40;101857.00;;;15.51;100.00
27705;BME280;15109;50.992;6.918;2022-07-06T02:15:01;101857.00;;;15.51;100.00
27705;BME280;15109;50.992;6.918;2022-07-06T02:18:23;101855.44;;;15.48;100.00
27705;BME280;15109;50.992;6.918;2022-07-06T02:21:44;101857.53;;;15.46;100.00
27705;BME280;15109;50.992;6.918;2022-07-06T02:25:07;101863.31;;;15.36;100.00
27705;BME280;15109;50.992;6.918;2022-07-06T02:28:28;101863.53;;;15.35;100.00
27705;BME280;15109;50.992;6.918;2022-07-06T02:31:50;101865.53;;;15.26;100.00
27705;BME280;15109;50.992;6.918;2022-07-06T02:35:11;101867.22;;;15.27;100.00
27705;BME280;15109;50.992;6.918;2022-07-06T02:38:32;101856.56;;;15.24;100.00
27705;BME280;15109;50.992;6.918;2022-07-06T02:41:55;101854.03;;;15.23;100.00
27705;BME280;15109;50.992;6.918;2022-07-06T02:45:16;101862.94;;;15.25;100.00
27705;BME280;15109;50.992;6.918;2022-07-06T02:48:37;101858.00;;;15.20;100.00
27705;BME280;15109;50.992;6.918;2022-07-06T02:52:00;101855.41;;;15.19;100.00
27705;BME280;15109;50.992;6.918;2022-07-06T02:55:22;101856.50;;;15.18;100.00
27705;BME280;15109;50.992;6.918;2022-07-06T02:58:44;101860.28;;;15.17;100.00
27705;BME280;15109;50.992;6.918;2022-07-06T03:02:07;101866.28;;;15.06;100.00
27705;BME280;15109;50.992;6.918;2022-07-06T03:05:28;101864.56;;;15.05;100.00
27705;BME280;15109;50.992;6.918;2022-07-06T03:08:50;101869.03;;;15.06;100.00
27705;BME280;15109;50.992;6.918;2022-07-06T03:12:11;101861.13;;;15.03;100.00
27705;BME280;15109;50.992;6.918;2022-07-06T03:15:33;101855.53;;;14.96;100.00
27705;BME280;15109;50.992;6.918;2022-07-06T03:18:54;101868.69;;;14.86;100.00
27705;BME280;15109;50.992;6.918;2022-07-06T03:22:16;101874.28;;;14.78;100.00
27705;BME280;15109;50.992;6.918;2022-07-06T03:25:37;101876.66;;;14.81;100.00
27705;BME280;15109;50.992;6.918;2022-07-06T03:28:58;101871.13;;;14.81;100.00
27705;BME280;15109;50.992;6.918;2022-07-06T03:32:20;101873.81;;;14.74;100.00
27705;BME280;15109;50.992;6.918;2022-07-06T03:35:42;101875.69;;;14.74;100.00
27705;BME280;15109;50.992;6.918;2022-07-06T03:39:06;101874.72;;;14.67;100.00
27705;BME280;15109;50.992;6.918;2022-07-06T03:42:29;101890.88;;;14.70;100.00
27705;BME280;15109;50.992;6.918;2022-07-06T03:45:51;101870.34;;;14.72;100.00
27705;BME280;15109;50.992;6.918;2022-07-06T03:49:13;101885.00;;;14.73;100.00
27705;BME280;15109;50.992;6.918;2022-07-06T03:52:35;101888.97;;;14.70;100.00
27705;BME280;15109;50.992;6.918;2022-07-06T03:56:00;101891.03;;;14.68;100.00
27705;BME280;15109;50.992;6.918;2022-07-06T03:59:40;101896.38;;;14.70;100.00
27705;BME280;15109;50.992;6.918;2022-07-06T04:03:01;101893.41;;;14.71;100.00
27705;BME280;15109;50.992;6.918;2022-07-06T04:06:27;101890.88;;;14.70;100.00
27705;BME280;15109;50.992;6.918;2022-07-06T04:09:48;101893.16;;;14.66;100.00
27705;BME280;15109;50.992;6.918;2022-07-06T04:13:10;101892.09;;;14.67;100.00
27705;BME280;15109;50.992;6.918;2022-07-06T04:16:31;101888.69;;;14.65;100.00
27705;BME280;15109;50.992;6.918;2022-07-06T04:19:52;101897.88;;;14.58;100.00
27705;BME280;15109;50.992;6.918;2022-07-06T04:23:14;101897.47;;;14.61;100.00
27705;BME280;15109;50.992;6.918;2022-07-06T04:26:35;101899.38;;;14.60;100.00
27705;BME280;15109;50.992;6.918;2022-07-06T04:29:56;101905.06;;;14.59;100.00
27705;BME280;15109;50.992;6.918;2022-07-06T04:33:18;101897.66;;;14.59;100.00
27705;BME280;15109;50.992;6.918;2022-07-06T04:36:40;101902.56;;;14.49;100.00
27705;BME280;15109;50.992;6.918;2022-07-06T04:40:02;101902.81;;;14.62;100.00
27705;BME280;15109;50.992;6.918;2022-07-06T04:43:25;101895.47;;;14.54;100.00
27705;BME280;15109;50.992;6.918;2022-07-06T04:46:46;101900.06;;;14.39;100.00
27705;BME280;15109;50.992;6.918;2022-07-06T04:50:07;101905.81;;;14.52;100.00
27705;BME280;15109;50.992;6.918;2022-07-06T04:53:30;101907.88;;;14.50;100.00
27705;BME280;15109;50.992;6.918;2022-07-06T04:56:51;101905.31;;;14.49;100.00
27705;BME280;15109;50.992;6.918;2022-07-06T05:00:14;101903.91;;;14.53;100.00
27705;BME280;15109;50.992;6.918;2022-07-06T05:03:36;101902.38;;;14.50;100.00
27705;BME280;15109;50.992;6.918;2022-07-06T05:07:02;101904.50;;;14.63;100.00
27705;BME280;15109;50.992;6.918;2022-07-06T05:10:23;101912.69;;;14.71;100.00
27705;BME280;15109;50.992;6.918;2022-07-06T05:13:48;101918.88;;;14.73;100.00
27705;BME280;15109;50.992;6.918;2022-07-06T05:17:10;101919.56;;;14.75;100.00
27705;BME280;15109;50.992;6.918;2022-07-06T05:20:32;101914.88;;;14.76;100.00
27705;BME280;15109;50.992;6.918;2022-07-06T05:23:55;101917.59;;;14.84;100.00
27705;BME280;15109;50.992;6.918;2022-07-06T05:27:16;101909.44;;;14.90;100.00
27705;BME280;15109;50.992;6.918;2022-07-06T05:30:38;101917.09;;;14.80;100.00
27705;BME280;15109;50.992;6.918;2022-07-06T05:33:59;101918.00;;;14.95;100.00
27705;BME280;15109;50.992;6.918;2022-07-06T05:37:20;101908.16;;;15.16;100.00
27705;BME280;15109;50.992;6.918;2022-07-06T05:40:42;101913.13;;;15.35;100.00
27705;BME280;15109;50.992;6.918;2022-07-06T05:44:03;101913.31;;;15.33;100.00
27705;BME280;15109;50.992;6.918;2022-07-06T05:47:25;101915.69;;;15.36;100.00
27705;BME280;15109;50.992;6.918;2022-07-06T05:51:04;101914.66;;;15.37;100.00
27705;BME280;15109;50.992;6.918;2022-07-06T05:54:26;101917.06;;;15.55;100.00
27705;BME280;15109;50.992;6.918;2022-07-06T05:57:48;101926.38;;;15.69;100.00
27705;BME280;15109;50.992;6.918;2022-07-06T06:01:11;101928.66;;;15.80;100.00
27705;BME280;15109;50.992;6.918;2022-07-06T06:04:35;101936.38;;;15.70;100.00
27705;BME280;15109;50.992;6.918;2022-07-06T06:07:56;101936.06;;;15.94;100.00
27705;BME280;15109;50.992;6.918;2022-07-06T06:11:20;101934.75;;;15.90;100.00
27705;BME280;15109;50.992;6.918;2022-07-06T06:14:41;101930.94;;;15.76;100.00
27705;BME280;15109;50.992;6.918;2022-07-06T06:18:02;101934.50;;;16.06;100.00
27705;BME280;15109;50.992;6.918;2022-07-06T06:21:24;101933.47;;;15.93;100.00
27705;BME280;15109;50.992;6.918;2022-07-06T06:24:45;101935.66;;;15.97;100.00
27705;BME280;15109;50.992;6.918;2022-07-06T06:28:08;101940.44;;;16.03;100.00
27705;BME280;15109;50.992;6.918;2022-07-06T06:31:29;101936.84;;;15.73;100.00
27705;BME280;15109;50.992;6.918;2022-07-06T06:34:50;101926.06;;;15.93;100.00
27705;BME280;15109;50.992;6.918;2022-07-06T06:38:12;101935.19;;;16.08;100.00
27705;BME280;15109;50.992;6.918;2022-07-06T06:41:33;101940.78;;;16.15;100.00
27705;BME280;15109;50.992;6.918;2022-07-06T06:44:54;101938.22;;;16.13;100.00
27705;BME280;15109;50.992;6.918;2022-07-06T06:48:15;101943.91;;;16.26;100.00
27705;BME280;15109;50.992;6.918;2022-07-06T06:51:38;101949.50;;;16.33;100.00
27705;BME280;15109;50.992;6.918;2022-07-06T06:55:00;101946.16;;;16.38;100.00
27705;BME280;15109;50.992;6.918;2022-07-06T06:58:21;101956.44;;;16.44;100.00
27705;BME280;15109;50.992;6.918;2022-07-06T07:01:42;101948.66;;;16.54;100.00
27705;BME280;15109;50.992;6.918;2022-07-06T07:05:04;101937.16;;;16.65;100.00
27705;BME280;15109;50.992;6.918;2022-07-06T07:08:25;101958.25;;;16.72;100.00
27705;BME280;15109;50.992;6.918;2022-07-06T07:11:46;101946.94;;;16.67;100.00
27705;BME280;15109;50.992;6.918;2022-07-06T07:15:07;101951.09;;;16.78;100.00
27705;BME280;15109;50.992;6.918;2022-07-06T07:18:29;101945.75;;;16.76;100.00
27705;BME280;15109;50.992;6.918;2022-07-06T07:21:50;101949.75;;;16.74;100.00
27705;BME280;15109;50.992;6.918;2022-07-06T07:25:11;101952.88;;;16.86;100.00
27705;BME280;15109;50.992;6.918;2022-07-06T07:28:32;101949.66;;;16.82;100.00
27705;BME280;15109;50.992;6.918;2022-07-06T07:31:53;101949.88;;;16.87;100.00
27705;BME280;15109;50.992;6.918;2022-07-06T07:35:14;101956.91;;;17.11;100.00
27705;BME280;15109;50.992;6.918;2022-07-06T07:38:35;101964.06;;;17.27;100.00
27705;BME280;15109;50.992;6.918;2022-07-06T07:41:56;101955.66;;;17.13;100.00
27705;BME280;15109;50.992;6.918;2022-07-06T07:45:17;101949.16;;;17.21;100.00
27705;BME280;15109;50.992;6.918;2022-07-06T07:48:38;101952.53;;;16.95;100.00
27705;BME280;15109;50.992;6.918;2022-07-06T07:52:00;101957.34;;;16.87;100.00
27705;BME280;15109;50.992;6.918;2022-07-06T07:55:21;101963.78;;;16.94;100.00
27705;BME280;15109;50.992;6.918;2022-07-06T07:58:42;101966.81;;;16.99;100.00
27705;BME280;15109;50.992;6.918;2022-07-06T08:02:06;101954.75;;;17.06;100.00
27705;BME280;15109;50.992;6.918;2022-07-06T08:05:27;101963.50;;;17.10;100.00
27705;BME280;15109;50.992;6.918;2022-07-06T08:08:48;101944.47;;;17.00;100.00
27705;BME280;15109;50.992;6.918;2022-07-06T08:12:09;101950.84;;;17.22;100.00
27705;BME280;15109;50.992;6.918;2022-07-06T08:15:30;101952.91;;;17.41;100.00
27705;BME280;15109;50.992;6.918;2022-07-06T08:18:52;101946.63;;;17.54;100.00
27705;BME280;15109;50.992;6.918;2022-07-06T08:22:13;101949.06;;;17.63;100.00
27705;BME280;15109;50.992;6.918;2022-07-06T08:25:34;101944.22;;;17.72;100.00
27705;BME280;15109;50.992;6.918;2022-07-06T08:28:55;101934.88;;;17.73;100.00
27705;BME280;15109;50.992;6.918;2022-07-06T08:32:16;101949.59;;;17.80;100.00
27705;BME280;15109;50.992;6.918;2022-07-06T08:35:37;101944.50;;;17.84;100.00
27705;BME280;15109;50.992;6.918;2022-07-06T08:38:58;101949.06;;;18.04;100.00
27705;BME280;15109;50.992;6.918;2022-07-06T08:42:20;101941.84;;;18.10;100.00
27705;BME280;15109;50.992;6.918;2022-07-06T08:45:42;101929.50;;;18.12;100.00
27705;BME280;15109;50.992;6.918;2022-07-06T08:49:08;101939.69;;;18.05;100.00
27705;BME280;15109;50.992;6.918;2022-07-06T08:52:29;101944.72;;;18.36;100.00
27705;BME280;15109;50.992;6.918;2022-07-06T08:55:51;101944.97;;;18.48;100.00
27705;BME280;15109;50.992;6.918;2022-07-06T08:59:12;101938.56;;;18.41;100.00
27705;BME280;15109;50.992;6.918;2022-07-06T09:02:33;101950.28;;;18.43;100.00
27705;BME280;15109;50.992;6.918;2022-07-06T09:05:58;101941.28;;;18.34;100.00
27705;BME280;15109;50.992;6.918;2022-07-06T09:09:22;101943.66;;;18.37;100.00
27705;BME280;15109;50.992;6.918;2022-07-06T09:12:44;101945.59;;;18.37;100.00
27705;BME280;15109;50.992;6.918;2022-07-06T09:16:13;101945.72;;;18.22;100.00
27705;BME280;15109;50.992;6.918;2022-07-06T09:19:35;101953.41;;;18.27;100.00
27705;BME280;15109;50.992;6.918;2022-07-06T09:23:01;101950.22;;;18.30;100.00
27705;BME280;15109;50.992;6.918;2022-07-06T09:26:24;101948.97;;;18.39;100.00
27705;BME280;15109;50.992;6.918;2022-07-06T09:29:45;101956.59;;;18.24;100.00
27705;BME280;15109;50.992;6.918;2022-07-06T09:33:07;101952.06;;;18.09;100.00
27705;BME280;15109;50.992;6.918;2022-07-06T09:36:45;101952.50;;;18.06;100.00
27705;BME280;15109;50.992;6.918;2022-07-06T09:40:19;101956.38;;;18.25;100.00
27705;BME280;15109;50.992;6.918;2022-07-06T09:43:40;101950.91;;;18.38;100.00
27705;BME280;15109;50.992;6.918;2022-07-06T09:47:03;101948.34;;;18.43;100.00
27705;BME280;15109;50.992;6.918;2022-07-06T09:50:24;101952.03;;;18.50;100.00
27705;BME280;15109;50.992;6.918;2022-07-06T09:53:51;101944.84;;;18.69;100.00
27705;BME280;15109;50.992;6.918;2022-07-06T09:57:13;101946.97;;;18.74;100.00
27705;BME280;15109;50.992;6.918;2022-07-06T10:00:34;101951.47;;;18.94;100.00
27705;BME280;15109;50.992;6.918;2022-07-06T10:03:55;101948.50;;;18.96;100.00
27705;BME280;15109;50.992;6.918;2022-07-06T10:07:17;101951.47;;;19.08;100.00
27705;BME280;15109;50.992;6.918;2022-07-06T10:10:39;101950.19;;;19.03;89.72
27705;BME280;15109;50.992;6.918;2022-07-06T10:14:03;101960.44;;;18.77;91.17
27705;BME280;15109;50.992;6.918;2022-07-06T10:17:25;101945.72;;;18.83;98.46
27705;BME280;15109;50.992;6.918;2022-07-06T10:20:46;101952.78;;;18.85;98.55
27705;BME280;15109;50.992;6.918;2022-07-06T10:24:11;101957.88;;;18.88;98.33
27705;BME280;15109;50.992;6.918;2022-07-06T10:27:34;101945.09;;;18.81;96.08
27705;BME280;15109;50.992;6.918;2022-07-06T10:30:57;101947.00;;;18.80;94.04
27705;BME280;15109;50.992;6.918;2022-07-06T10:34:19;101947.81;;;18.61;95.61
27705;BME280;15109;50.992;6.918;2022-07-06T10:37:41;101933.97;;;18.68;93.60
27705;BME280;15109;50.992;6.918;2022-07-06T10:41:10;101939.31;;;18.76;94.88
27705;BME280;15109;50.992;6.918;2022-07-06T10:44:44;101935.91;;;18.80;93.27
27705;BME280;15109;50.992;6.918;2022-07-06T10:51:32;101926.75;;;18.93;91.60
27705;BME280;15109;50.992;6.918;2022-07-06T10:54:56;101922.06;;;19.00;90.54
27705;BME280;15109;50.992;6.918;2022-07-06T11:02:16;101922.91;;;19.07;90.99
27705;BME280;15109;50.992;6.918;2022-07-06T11:05:41;101912.66;;;19.08;89.19
27705;BME280;15109;50.992;6.918;2022-07-06T11:09:10;101920.38;;;19.19;91.18
27705;BME280;15109;50.992;6.918;2022-07-06T11:12:34;101916.31;;;19.15;85.01
27705;BME280;15109;50.992;6.918;2022-07-06T11:16:03;101910.53;;;19.16;82.21
27705;BME280;15109;50.992;6.918;2022-07-06T11:19:24;101909.69;;;19.22;83.80
27705;BME280;15109;50.992;6.918;2022-07-06T11:22:46;101909.69;;;19.35;86.21
27705;BME280;15109;50.992;6.918;2022-07-06T11:26:08;101912.91;;;19.45;83.22
27705;BME280;15109;50.992;6.918;2022-07-06T11:29:30;101910.97;;;19.53;81.83
27705;BME280;15109;50.992;6.918;2022-07-06T11:32:51;101910.50;;;19.62;81.59
27705;BME280;15109;50.992;6.918;2022-07-06T11:36:21;101914.31;;;19.74;81.37
27705;BME280;15109;50.992;6.918;2022-07-06T11:39:43;101911.53;;;19.74;81.26
27705;BME280;15109;50.992;6.918;2022-07-06T11:43:04;101915.38;;;19.73;80.15
27705;BME280;15109;50.992;6.918;2022-07-06T11:46:29;101905.59;;;19.71;88.38
27705;BME280;15109;50.992;6.918;2022-07-06T11:49:51;101912.66;;;19.54;91.06
27705;BME280;15109;50.992;6.918;2022-07-06T11:53:14;101913.69;;;19.66;92.24
27705;BME280;15109;50.992;6.918;2022-07-06T11:56:36;101902.94;;;19.89;92.82
27705;BME280;15109;50.992;6.918;2022-07-06T11:59:57;101908.81;;;20.19;88.79
27705;BME280;15109;50.992;6.918;2022-07-06T12:03:18;101911.78;;;20.30;91.19
27705;BME280;15109;50.992;6.918;2022-07-06T12:06:39;101909.53;;;20.46;88.57
27705;BME280;15109;50.992;6.918;2022-07-06T12:10:00;101905.78;;;20.65;90.34
27705;BME280;15109;50.992;6.918;2022-07-06T12:13:21;101900.03;;;20.60;85.35
27705;BME280;15109;50.992;6.918;2022-07-06T12:16:43;101907.50;;;20.21;86.06
27705;BME280;15109;50.992;6.918;2022-07-06T12:20:05;101895.34;;;20.22;87.48
27705;BME280;15109;50.992;6.918;2022-07-06T12:23:41;101889.19;;;20.07;87.44
27705;BME280;15109;50.992;6.918;2022-07-06T12:27:18;101883.03;;;19.99;86.22
27705;BME280;15109;50.992;6.918;2022-07-06T12:30:45;101880.41;;;20.17;87.00
27705;BME280;15109;50.992;6.918;2022-07-06T12:34:22;101876.06;;;20.27;85.22
27705;BME280;15109;50.992;6.918;2022-07-06T12:37:56;101867.94;;;20.26;84.76
27705;BME280;15109;50.992;6.918;2022-07-06T12:44:48;101862.84;;;20.61;83.09
27705;BME280;15109;50.992;6.918;2022-07-06T12:48:10;101859.25;;;20.54;81.30
27705;BME280;15109;50.992;6.918;2022-07-06T12:51:51;101847.63;;;20.63;79.98
27705;BME280;15109;50.992;6.918;2022-07-06T12:55:12;101846.66;;;20.51;79.96
27705;BME280;15109;50.992;6.918;2022-07-06T12:58:36;101847.72;;;20.50;80.53
27705;BME280;15109;50.992;6.918;2022-07-06T13:01:57;101841.91;;;20.58;81.52
27705;BME280;15109;50.992;6.918;2022-07-06T13:05:22;101839.66;;;20.73;81.45
27705;BME280;15109;50.992;6.918;2022-07-06T13:08:50;101847.69;;;20.81;82.00
27705;BME280;15109;50.992;6.918;2022-07-06T13:12:11;101840.50;;;20.99;81.04
27705;BME280;15109;50.992;6.918;2022-07-06T13:15:32;101839.81;;;21.03;78.21
27705;BME280;15109;50.992;6.918;2022-07-06T13:18:53;101845.94;;;21.12;77.68
27705;BME280;15109;50.992;6.918;2022-07-06T13:22:14;101844.50;;;21.03;78.52
27705;BME280;15109;50.992;6.918;2022-07-06T13:25:35;101851.69;;;21.17;78.40
27705;BME280;15109;50.992;6.918;2022-07-06T13:28:56;101836.50;;;21.38;81.05
27705;BME280;15109;50.992;6.918;2022-07-06T13:32:18;101832.63;;;21.39;79.15
27705;BME280;15109;50.992;6.918;2022-07-06T13:35:39;101836.25;;;21.21;79.83
27705;BME280;15109;50.992;6.918;2022-07-06T13:39:00;101835.09;;;21.28;80.92
27705;BME280;15109;50.992;6.918;2022-07-06T13:42:21;101827.16;;;21.07;79.25
27705;BME280;15109;50.992;6.918;2022-07-06T13:45:42;101821.59;;;21.07;80.12
27705;BME280;15109;50.992;6.918;2022-07-06T13:49:03;101817.94;;;21.07;80.54
27705;BME280;15109;50.992;6.918;2022-07-06T13:52:25;101817.09;;;21.06;81.08
27705;BME280;15109;50.992;6.918;2022-07-06T13:55:46;101816.50;;;21.04;83.03
27705;BME280;15109;50.992;6.918;2022-07-06T13:59:07;101807.88;;;21.06;82.03
27705;BME280;15109;50.992;6.918;2022-07-06T14:02:28;101807.25;;;21.28;80.10
27705;BME280;15109;50.992;6.918;2022-07-06T14:05:49;101803.31;;;21.54;80.08
27705;BME280;15109;50.992;6.918;2022-07-06T14:09:10;101806.03;;;21.61;79.57
27705;BME280;15109;50.992;6.918;2022-07-06T14:12:32;101819.09;;;21.60;78.02
27705;BME280;15109;50.992;6.918;2022-07-06T14:15:53;101809.44;;;21.63;78.56
27705;BME280;15109;50.992;6.918;2022-07-06T14:19:15;101814.25;;;21.56;76.85
27705;BME280;15109;50.992;6.918;2022-07-06T14:22:36;101812.25;;;21.74;77.93
27705;BME280;15109;50.992;6.918;2022-07-06T14:25:57;101799.13;;;22.00;76.24
27705;BME280;15109;50.992;6.918;2022-07-06T14:29:18;101802.81;;;22.12;74.07
27705;BME280;15109;50.992;6.918;2022-07-06T14:32:39;101789.28;;;22.27;74.43
27705;BME280;15109;50.992;6.918;2022-07-06T14:36:01;101793.41;;;22.36;75.78
27705;BME280;15109;50.992;6.918;2022-07-06T14:39:22;101792.19;;;22.32;76.99
27705;BME280;15109;50.992;6.918;2022-07-06T14:42:43;101786.59;;;22.21;73.89
27705;BME280;15109;50.992;6.918;2022-07-06T14:46:04;101783.75;;;22.39;72.50
27705;BME280;15109;50.992;6.918;2022-07-06T14:49:25;101775.69;;;22.84;73.35
27705;BME280;15109;50.992;6.918;2022-07-06T14:52:46;101772.25;;;22.58;71.33
27705;BME280;15109;50.992;6.918;2022-07-06T14:56:08;101773.97;;;22.59;70.70
27705;BME280;15109;50.992;6.918;2022-07-06T14:59:29;101767.81;;;22.81;70.65
27705;BME280;15109;50.992;6.918;2022-07-06T15:02:50;101765.50;;;23.24;71.22
27705;BME280;15109;50.992;6.918;2022-07-06T15:06:11;101761.06;;;23.63;72.04
27705;BME280;15109;50.992;6.918;2022-07-06T15:09:33;101760.16;;;23.46;67.95
27705;BME280;15109;50.992;6.918;2022-07-06T15:12:54;101762.44;;;23.37;66.79
27705;BME280;15109;50.992;6.918;2022-07-06T15:16:15;101755.06;;;23.20;68.51
27705;BME280;15109;50.992;6.918;2022-07-06T15:19:37;101759.16;;;23.40;66.17
27705;BME280;15109;50.992;6.918;2022-07-06T15:22:58;101761.34;;;23.78;67.41
27705;BME280;15109;50.992;6.918;2022-07-06T15:26:19;101751.38;;;23.82;65.50
27705;BME280;15109;50.992;6.918;2022-07-06T15:29:40;101735.25;;;24.01;64.85
27705;BME280;15109;50.992;6.918;2022-07-06T15:33:01;101740.06;;;24.17;63.96
27705;BME280;15109;50.992;6.918;2022-07-06T15:36:22;101731.34;;;24.30;63.78
27705;BME280;15109;50.992;6.918;2022-07-06T15:39:43;101733.06;;;24.31;63.97
27705;BME280;15109;50.992;6.918;2022-07-06T15:43:04;101731.06;;;23.87;62.88
27705;BME280;15109;50.992;6.918;2022-07-06T15:46:26;101729.25;;;23.64;63.31
27705;BME280;15109;50.992;6.918;2022-07-06T15:49:47;101720.75;;;23.87;62.85
27705;BME280;15109;50.992;6.918;2022-07-06T15:53:09;101725.03;;;23.78;65.28
27705;BME280;15109;50.992;6.918;2022-07-06T15:56:30;101719.19;;;24.08;68.33
27705;BME280;15109;50.992;6.918;2022-07-06T15:59:51;101713.16;;;24.00;63.90
27705;BME280;15109;50.992;6.918;2022-07-06T16:03:12;101705.81;;;24.10;63.92
27705;BME280;15109;50.992;6.918;2022-07-06T16:06:35;101697.81;;;24.30;63.02
27705;BME280;15109;50.992;6.918;2022-07-06T16:09:56;101685.28;;;24.33;65.79
27705;BME280;15109;50.992;6.918;2022-07-06T16:13:17;101701.03;;;24.22;62.23
27705;BME280;15109;50.992;6.918;2022-07-06T16:16:41;101694.47;;;23.72;63.08
27705;BME280;15109;50.992;6.918;2022-07-06T16:20:03;101691.81;;;23.65;65.81
27705;BME280;15109;50.992;6.918;2022-07-06T16:23:24;101682.34;;;23.38;65.95
27705;BME280;15109;50.992;6.918;2022-07-06T16:26:45;101686.09;;;23.32;64.51
27705;BME280;15109;50.992;6.918;2022-07-06T16:30:08;101679.13;;;23.06;64.70
27705;BME280;15109;50.992;6.918;2022-07-06T16:33:29;101672.13;;;23.03;67.92
27705;BME280;15109;50.992;6.918;2022-07-06T16:36:55;101674.44;;;22.83;67.27
27705;BME280;15109;50.992;6.918;2022-07-06T16:40:16;101677.09;;;22.78;67.34
27705;BME280;15109;50.992;6.918;2022-07-06T16:43:38;101671.06;;;22.81;67.73
27705;BME280;15109;50.992;6.918;2022-07-06T16:46:59;101674.81;;;22.75;66.14
27705;BME280;15109;50.992;6.918;2022-07-06T16:50:20;101668.50;;;22.68;66.88
27705;BME280;15109;50.992;6.918;2022-07-06T16:53:41;101662.19;;;22.61;69.80
27705;BME280;15109;50.992;6.918;2022-07-06T16:57:02;101649.97;;;22.50;68.27
27705;BME280;15109;50.992;6.918;2022-07-06T17:00:24;101646.81;;;22.47;70.24
27705;BME280;15109;50.992;6.918;2022-07-06T17:03:45;101645.47;;;22.26;69.84
27705;BME280;15109;50.992;6.918;2022-07-06T17:07:06;101649.34;;;22.25;71.71
27705;BME280;15109;50.992;6.918;2022-07-06T17:10:27;101647.78;;;22.17;70.44
27705;BME280;15109;50.992;6.918;2022-07-06T17:13:48;101648.50;;;22.25;69.47
27705;BME280;15109;50.992;6.918;2022-07-06T17:17:11;101641.34;;;22.17;69.33
27705;BME280;15109;50.992;6.918;2022-07-06T17:20:32;101640.25;;;22.18;75.57
27705;BME280;15109;50.992;6.918;2022-07-06T17:23:53;101629.94;;;22.18;70.21
27705;BME280;15109;50.992;6.918;2022-07-06T17:27:17;101632.50;;;22.20;70.64
27705;BME280;15109;50.992;6.918;2022-07-06T17:30:38;101632.88;;;22.24;75.15
27705;BME280;15109;50.992;6.918;2022-07-06T17:33:59;101627.78;;;22.21;71.40
27705;BME280;15109;50.992;6.918;2022-07-06T17:37:20;101624.25;;;22.02;71.96
27705;BME280;15109;50.992;6.918;2022-07-06T17:40:42;101638.53;;;21.94;71.69